Time;durP1;ratioP1;P1;durP2;ratioP2;P2;SDS_P1;SDS_P2;PMS_P1;PMS_P2;Temp;Humidity;BMP_temperature;BMP_pressure;BME280_temperature;BME280_humidity;BME280_pressure;Samples;Min_cycle;Max_cycle;Signal;HPM_P1;HPM_P2
2021/04/22 00:01:14;;;;;;;27.97;21.03;;;10.90;99.90;;;;;;5066104;28;20779;-71
2021/04/22 00:03:59;;;;;;;30.40;21.10;;;11.00;99.90;;;;;;5064029;28;21638;-70
2021/04/22 00:06:45;;;;;;;31.37;23.40;;;11.00;99.90;;;;;;5061740;28;21075;-70
2021/04/22 00:09:30;;;;;;;28.73;21.20;;;11.00;99.90;;;;;;5061864;28;20539;-71
2021/04/22 00:12:15;;;;;;;32.20;23.97;;;11.00;99.90;;;;;;5063943;28;20459;-71
2021/04/22 00:15:00;;;;;;;35.23;22.40;;;11.00;99.90;;;;;;5062289;28;20563;-70
2021/04/22 00:17:47;;;;;;;29.57;21.80;;;11.00;99.90;;;;;;5068145;28;20445;-70
2021/04/22 00:20:32;;;;;;;27.37;21.93;;;11.10;99.90;;;;;;5055156;28;20446;-71
2021/04/22 00:23:18;;;;;;;33.83;22.37;;;11.10;99.90;;;;;;5064832;28;20746;-71
2021/04/22 00:26:04;;;;;;;26.37;21.60;;;10.90;99.90;;;;;;5064363;28;20484;-71
2021/04/22 00:28:49;;;;;;;26.87;20.27;;;10.90;99.90;;;;;;5065199;28;20951;-71
2021/04/22 00:31:34;;;;;;;25.63;20.03;;;10.70;99.90;;;;;;5055359;28;20808;-71
2021/04/22 00:34:20;;;;;;;30.80;21.30;;;10.50;99.90;;;;;;5055841;28;20907;-71
2021/04/22 00:37:05;;;;;;;29.97;20.50;;;10.20;99.90;;;;;;5064263;28;20568;-71
2021/04/22 00:39:50;;;;;;;28.70;20.33;;;10.10;99.90;;;;;;5057478;28;20473;-70
2021/04/22 00:42:35;;;;;;;25.60;20.07;;;10.00;99.90;;;;;;5064665;28;20952;-70
2021/04/22 00:45:21;;;;;;;24.57;18.90;;;9.90;99.90;;;;;;5059040;28;20515;-70
2021/04/22 00:48:07;;;;;;;29.70;20.53;;;9.90;99.90;;;;;;5061704;28;21089;-71
2021/04/22 00:50:53;;;;;;;27.23;20.40;;;9.80;99.90;;;;;;5058943;28;20451;-71
2021/04/22 00:53:39;;;;;;;29.07;20.63;;;9.70;99.90;;;;;;5059724;28;20484;-71
2021/04/22 00:56:24;;;;;;;22.50;18.40;;;9.50;99.90;;;;;;5052841;28;20882;-71
2021/04/22 00:59:09;;;;;;;29.50;20.87;;;9.40;99.90;;;;;;5062337;28;20568;-70
2021/04/22 01:01:54;;;;;;;32.07;21.00;;;9.30;99.90;;;;;;5058923;28;20593;-70
2021/04/22 01:04:39;;;;;;;26.00;19.77;;;9.30;99.90;;;;;;5058194;28;20466;-70
2021/04/22 01:07:25;;;;;;;31.00;20.30;;;9.30;99.90;;;;;;5065388;28;20434;-71
2021/04/22 01:10:13;;;;;;;31.30;20.40;;;9.20;99.90;;;;;;5064917;28;20905;-71
2021/04/22 01:12:58;;;;;;;22.00;18.40;;;9.00;99.90;;;;;;5061325;28;20417;-71
2021/04/22 01:15:44;;;;;;;28.50;21.43;;;9.10;99.90;;;;;;5061022;28;20549;-70
2021/04/22 01:18:29;;;;;;;28.93;20.37;;;8.90;99.90;;;;;;5059289;28;21009;-70
2021/04/22 01:21:23;;;;;;;28.57;20.77;;;8.80;99.90;;;;;;5058058;28;20563;-71
2021/04/22 01:24:09;;;;;;;28.83;19.33;;;8.80;99.90;;;;;;5062287;28;20893;-70
2021/04/22 01:26:54;;;;;;;28.90;19.73;;;8.90;99.90;;;;;;5060515;28;20471;-70
2021/04/22 01:29:39;;;;;;;27.57;19.37;;;8.80;99.90;;;;;;5057091;28;20981;-70
2021/04/22 01:32:24;;;;;;;30.70;19.73;;;8.90;99.90;;;;;;5052373;28;20510;-71
2021/04/22 01:35:11;;;;;;;24.10;19.77;;;9.00;99.90;;;;;;5063241;28;20622;-71
2021/04/22 01:37:59;;;;;;;27.03;20.07;;;8.90;99.90;;;;;;5063664;28;20509;-69
2021/04/22 01:40:45;;;;;;;33.50;20.50;;;9.00;99.90;;;;;;5061258;28;20421;-75
2021/04/22 01:43:31;;;;;;;26.33;19.57;;;8.70;99.90;;;;;;5064865;28;20492;-71
2021/04/22 01:46:16;;;;;;;24.30;19.53;;;8.80;99.90;;;;;;5064387;28;20481;-70
2021/04/22 01:49:01;;;;;;;27.17;19.60;;;8.70;99.90;;;;;;5055655;28;20884;-70
2021/04/22 01:51:46;;;;;;;24.50;19.27;;;8.60;99.90;;;;;;5057460;28;20437;-70
2021/04/22 01:54:32;;;;;;;22.57;18.57;;;8.50;99.90;;;;;;5052819;28;20825;-70
2021/04/22 01:57:17;;;;;;;26.00;18.67;;;8.40;99.90;;;;;;5060655;28;20459;-70
2021/04/22 02:00:08;;;;;;;22.43;18.27;;;8.40;99.90;;;;;;5062265;28;20543;-71
2021/04/22 02:02:53;;;;;;;23.90;17.67;;;8.30;99.90;;;;;;5063188;28;20460;-70
2021/04/22 02:05:39;;;;;;;31.30;17.67;;;8.20;99.90;;;;;;5060149;28;20479;-70
2021/04/22 02:08:25;;;;;;;21.70;17.07;;;8.30;99.90;;;;;;5061632;28;20453;-71
2021/04/22 02:11:11;;;;;;;26.40;20.10;;;8.40;99.90;;;;;;5060880;28;21184;-71
2021/04/22 02:13:56;;;;;;;21.80;17.57;;;8.30;99.90;;;;;;5060728;28;20463;-71
2021/04/22 02:16:42;;;;;;;22.43;17.90;;;8.40;99.90;;;;;;5065166;28;20569;-71
2021/04/22 02:19:27;;;;;;;25.53;15.77;;;8.20;99.90;;;;;;5058175;28;20445;-70
2021/04/22 02:22:12;;;;;;;24.10;18.00;;;8.20;99.90;;;;;;5063119;28;21091;-70
2021/04/22 02:24:57;;;;;;;23.20;16.93;;;8.20;99.90;;;;;;5064312;28;20469;-70
2021/04/22 02:27:44;;;;;;;27.70;16.63;;;8.20;99.90;;;;;;5062224;28;20469;-69
2021/04/22 02:30:30;;;;;;;27.33;16.63;;;8.20;99.90;;;;;;5058261;28;20421;-70
2021/04/22 02:33:18;;;;;;;24.93;17.00;;;8.30;99.90;;;;;;5068267;28;20456;-70
2021/04/22 02:36:04;;;;;;;22.13;16.53;;;8.20;99.90;;;;;;5062791;28;20990;-70
2021/04/22 02:38:49;;;;;;;25.03;15.33;;;8.20;99.90;;;;;;5066424;28;20481;-70
2021/04/22 02:41:34;;;;;;;21.63;15.90;;;8.40;99.90;;;;;;5064022;28;20975;-71
2021/04/22 02:44:20;;;;;;;21.13;15.33;;;8.40;99.90;;;;;;5063468;28;20417;-70
2021/04/22 02:47:05;;;;;;;25.33;15.70;;;8.20;99.90;;;;;;5063482;28;20526;-70
2021/04/22 02:49:50;;;;;;;21.97;15.47;;;8.20;99.90;;;;;;5066578;28;20460;-69
2021/04/22 02:52:35;;;;;;;26.30;14.57;;;8.30;99.90;;;;;;5060943;28;21020;-71
2021/04/22 02:55:20;;;;;;;20.77;13.97;;;8.30;99.90;;;;;;5065025;28;20475;-70
2021/04/22 02:58:06;;;;;;;18.97;12.90;;;8.30;99.90;;;;;;5064378;28;20481;-70
2021/04/22 03:00:52;;;;;;;22.17;13.60;;;8.50;99.90;;;;;;5058439;28;20429;-70
2021/04/22 03:03:38;;;;;;;15.90;12.70;;;8.50;99.90;;;;;;5066867;28;20450;-70
2021/04/22 03:06:23;;;;;;;17.97;11.73;;;8.50;99.90;;;;;;5060271;28;20441;-71
2021/04/22 03:09:08;;;;;;;18.30;10.10;;;8.60;99.90;;;;;;5065061;28;20455;-69
2021/04/22 03:11:53;;;;;;;14.03;9.23;;;8.70;99.90;;;;;;5061584;28;20455;-70
2021/04/22 03:14:38;;;;;;;23.07;10.37;;;8.90;99.90;;;;;;5064742;28;20471;-70
2021/04/22 03:17:24;;;;;;;19.33;8.93;;;8.90;99.90;;;;;;5061130;28;20460;-71
2021/04/22 03:20:11;;;;;;;21.63;8.20;;;8.90;99.90;;;;;;5064443;28;20418;-70
2021/04/22 03:22:56;;;;;;;17.80;7.57;;;9.00;99.90;;;;;;5060048;28;20497;-69
2021/04/22 03:25:42;;;;;;;16.37;7.80;;;9.10;99.90;;;;;;5062033;28;21019;-69
2021/04/22 03:28:26;;;;;;;16.23;6.80;;;9.10;99.90;;;;;;5058726;28;21005;-70
2021/04/22 03:31:12;;;;;;;15.40;7.00;;;9.00;99.90;;;;;;5065006;28;20425;-68
2021/04/22 03:33:57;;;;;;;20.80;7.73;;;9.00;99.90;;;;;;5064122;28;20537;-71
2021/04/22 03:36:43;;;;;;;15.73;7.80;;;9.00;99.90;;;;;;5058659;28;20581;-70
2021/04/22 03:39:28;;;;;;;18.17;7.27;;;9.00;99.90;;;;;;5062267;28;20542;-71
2021/04/22 03:42:16;;;;;;;14.43;7.43;;;9.00;99.90;;;;;;5070829;28;20486;-69
2021/04/22 03:45:03;;;;;;;17.87;6.80;;;9.10;99.90;;;;;;5063695;28;20475;-71
2021/04/22 03:47:48;;;;;;;16.97;6.70;;;9.10;99.90;;;;;;5062949;28;20956;-71
2021/04/22 03:50:34;;;;;;;13.53;6.43;;;9.10;99.90;;;;;;5058304;28;20525;-70
2021/04/22 03:53:19;;;;;;;11.27;5.40;;;9.10;99.90;;;;;;5061807;28;20429;-70
2021/04/22 03:56:04;;;;;;;12.77;5.83;;;9.10;99.90;;;;;;5060144;28;20444;-69
2021/04/22 03:58:49;;;;;;;11.80;5.70;;;9.10;99.90;;;;;;5063350;28;20516;-70
2021/04/22 04:01:34;;;;;;;16.23;6.37;;;9.10;99.90;;;;;;5061561;28;20496;-71
2021/04/22 04:04:20;;;;;;;14.70;6.50;;;9.10;99.90;;;;;;5060831;28;20513;-70
2021/04/22 04:07:06;;;;;;;11.80;5.43;;;8.90;99.90;;;;;;5059676;28;20515;-70
2021/04/22 04:09:51;;;;;;;14.17;5.63;;;8.80;99.90;;;;;;5063880;28;20449;-70
2021/04/22 04:12:36;;;;;;;12.23;6.23;;;8.70;99.90;;;;;;5058705;28;20412;-70
2021/04/22 04:15:21;;;;;;;10.30;5.43;;;8.60;99.90;;;;;;5055844;28;20474;-70
2021/04/22 04:18:06;;;;;;;14.07;5.80;;;8.50;99.90;;;;;;5063115;28;20463;-69
2021/04/22 04:20:52;;;;;;;15.73;6.50;;;8.50;99.90;;;;;;5063947;28;20425;-70
2021/04/22 04:23:38;;;;;;;16.27;6.40;;;8.60;99.90;;;;;;5061488;28;20496;-70
2021/04/22 04:26:22;;;;;;;15.17;5.73;;;8.70;99.90;;;;;;5060904;28;20520;-71
2021/04/22 04:29:08;;;;;;;8.47;5.60;;;8.60;99.90;;;;;;5058727;28;20478;-70
2021/04/22 04:31:53;;;;;;;13.50;5.67;;;8.60;99.90;;;;;;5058985;28;20572;-70
2021/04/22 04:34:38;;;;;;;16.60;5.03;;;8.60;99.90;;;;;;5060794;28;20466;-71
2021/04/22 04:37:23;;;;;;;9.67;5.57;;;8.60;99.90;;;;;;5061490;28;21044;-70
2021/04/22 04:40:13;;;;;;;10.80;5.40;;;8.50;99.90;;;;;;5064682;28;20450;-71
2021/04/22 04:42:58;;;;;;;20.43;6.47;;;8.60;99.90;;;;;;5062384;28;20442;-70
2021/04/22 04:45:43;;;;;;;13.77;4.40;;;8.50;99.90;;;;;;5057577;28;20524;-70
2021/04/22 04:48:29;;;;;;;12.30;5.50;;;8.50;99.90;;;;;;5055704;28;20429;-70
2021/04/22 04:51:14;;;;;;;17.60;4.30;;;8.50;99.90;;;;;;5058995;28;21044;-70
2021/04/22 04:53:59;;;;;;;11.43;4.90;;;8.50;99.90;;;;;;5063501;28;21241;-69
2021/04/22 04:56:45;;;;;;;16.30;4.87;;;8.50;99.90;;;;;;5060865;28;20446;-70
2021/04/22 04:59:30;;;;;;;12.63;4.37;;;8.50;99.90;;;;;;5059774;28;20502;-69
2021/04/22 05:02:16;;;;;;;12.33;4.27;;;8.40;99.90;;;;;;5055932;28;21122;-70
2021/04/22 05:05:01;;;;;;;7.67;3.97;;;8.40;99.90;;;;;;5061868;28;20508;-69
2021/04/22 05:07:46;;;;;;;11.43;4.30;;;8.40;99.90;;;;;;5060702;28;20459;-70
2021/04/22 05:10:31;;;;;;;12.33;4.63;;;8.50;99.90;;;;;;5063982;28;20461;-68
2021/04/22 05:13:17;;;;;;;10.27;3.70;;;8.40;99.90;;;;;;5061909;28;20450;-68
2021/04/22 05:16:03;;;;;;;9.77;3.53;;;8.40;99.90;;;;;;5058020;28;20491;-68
2021/04/22 05:18:48;;;;;;;18.60;3.90;;;8.40;99.90;;;;;;5060217;28;21047;-71
2021/04/22 05:21:34;;;;;;;16.27;3.93;;;8.30;99.90;;;;;;5059149;28;20802;-69
2021/04/22 05:24:20;;;;;;;13.40;3.80;;;8.30;99.90;;;;;;5066718;28;20462;-70
2021/04/22 05:27:06;;;;;;;14.60;4.37;;;8.20;99.90;;;;;;5067258;28;20488;-69
2021/04/22 05:29:52;;;;;;;20.77;3.73;;;8.10;99.90;;;;;;5065544;28;20409;-70
2021/04/22 05:32:37;;;;;;;16.80;5.10;;;8.00;99.90;;;;;;5054859;28;20443;-70
2021/04/22 05:35:23;;;;;;;14.80;3.53;;;8.00;99.90;;;;;;5064806;28;20504;-71
2021/04/22 05:38:08;;;;;;;13.80;3.60;;;8.00;99.90;;;;;;5064372;28;20506;-70
2021/04/22 05:40:54;;;;;;;11.93;4.00;;;8.00;99.90;;;;;;5064520;28;20432;-70
2021/04/22 05:43:39;;;;;;;15.67;3.53;;;7.90;99.90;;;;;;5056509;28;20446;-70
2021/04/22 05:46:25;;;;;;;14.30;4.13;;;7.90;99.90;;;;;;5065077;28;20452;-69
2021/04/22 05:49:10;;;;;;;10.87;3.40;;;8.00;99.90;;;;;;5060565;28;20534;-69
2021/04/22 05:51:55;;;;;;;17.10;3.67;;;8.00;99.90;;;;;;5059789;28;20429;-70
2021/04/22 05:54:40;;;;;;;17.23;4.10;;;7.90;99.90;;;;;;5068687;28;20555;-70
2021/04/22 05:57:25;;;;;;;9.67;3.47;;;8.00;99.90;;;;;;5060287;28;20478;-70
2021/04/22 06:00:13;;;;;;;15.50;4.03;;;8.00;99.90;;;;;;5069293;28;20450;-71
2021/04/22 06:02:59;;;;;;;12.93;3.70;;;8.00;99.90;;;;;;5063371;28;20582;-70
2021/04/22 06:05:45;;;;;;;13.73;3.73;;;8.10;99.90;;;;;;5061147;28;20448;-70
2021/04/22 06:08:30;;;;;;;13.33;3.60;;;8.10;99.90;;;;;;5069335;28;20422;-70
2021/04/22 06:11:15;;;;;;;18.40;3.83;;;8.00;99.90;;;;;;5060793;28;20451;-71
2021/04/22 06:14:00;;;;;;;11.73;3.60;;;8.00;99.90;;;;;;5065381;28;20482;-71
2021/04/22 06:16:45;;;;;;;12.37;3.60;;;8.00;99.90;;;;;;5063993;28;20561;-70
2021/04/22 06:19:31;;;;;;;13.50;3.43;;;8.10;99.90;;;;;;5068324;28;20492;-71
2021/04/22 06:22:17;;;;;;;13.77;3.20;;;8.10;99.90;;;;;;5062046;28;20519;-71
2021/04/22 06:25:02;;;;;;;9.53;4.13;;;8.20;99.90;;;;;;5062866;28;21037;-70
2021/04/22 06:27:47;;;;;;;11.30;3.33;;;8.20;99.90;;;;;;5062540;28;20467;-69
2021/04/22 06:30:32;;;;;;;21.57;4.60;;;8.20;99.90;;;;;;5067792;28;20452;-68
2021/04/22 06:33:18;;;;;;;10.37;2.40;;;8.10;99.90;;;;;;5065390;28;20442;-69
2021/04/22 06:36:05;;;;;;;15.77;3.73;;;8.10;99.90;;;;;;5066498;28;20438;-71
2021/04/22 06:38:51;;;;;;;16.37;2.77;;;8.10;99.80;;;;;;5058947;28;20804;-70
2021/04/22 06:41:37;;;;;;;9.97;2.90;;;8.00;99.90;;;;;;5067375;28;20450;-70
2021/04/22 06:44:22;;;;;;;10.33;3.30;;;7.90;98.60;;;;;;5067154;28;20417;-70
2021/04/22 06:47:08;;;;;;;17.60;3.20;;;7.90;96.10;;;;;;5059854;28;20501;-70
2021/04/22 06:49:53;;;;;;;9.27;4.07;;;7.90;95.20;;;;;;5060925;28;20458;-70
2021/04/22 06:52:39;;;;;;;13.80;4.90;;;8.00;95.00;;;;;;5062992;28;21130;-69
2021/04/22 06:55:25;;;;;;;25.33;4.80;;;8.10;95.30;;;;;;5063852;28;20497;-71
2021/04/22 06:58:10;;;;;;;11.00;3.00;;;8.10;93.10;;;;;;5061400;28;21042;-71
2021/04/22 07:00:55;;;;;;;19.37;3.60;;;8.30;90.70;;;;;;5064189;28;20494;-70
2021/04/22 07:03:40;;;;;;;36.37;4.43;;;8.50;88.30;;;;;;5067909;28;20509;-71
2021/04/22 07:06:26;;;;;;;13.53;4.00;;;8.50;84.90;;;;;;5061260;28;20465;-70
2021/04/22 07:09:12;;;;;;;16.63;4.13;;;8.30;82.80;;;;;;5059867;28;20446;-71
2021/04/22 07:11:57;;;;;;;18.40;3.70;;;8.20;84.20;;;;;;5064491;28;20442;-70
2021/04/22 07:14:42;;;;;;;18.13;4.17;;;8.20;84.60;;;;;;5067873;28;20520;-70
2021/04/22 07:17:28;;;;;;;11.90;4.13;;;8.20;83.50;;;;;;5068442;28;20488;-70
2021/04/22 07:20:17;;;;;;;13.93;3.70;;;8.20;84.60;;;;;;5061381;28;20516;-71
2021/04/22 07:23:02;;;;;;;13.17;3.87;;;8.30;83.80;;;;;;5069382;28;20445;-71
2021/04/22 07:25:50;;;;;;;10.70;3.23;;;8.50;82.30;;;;;;5063218;28;20479;-70
2021/04/22 07:28:36;;;;;;;14.90;3.63;;;8.60;79.90;;;;;;5066657;28;20434;-71
2021/04/22 07:31:21;;;;;;;13.50;4.07;;;8.80;77.00;;;;;;5068131;28;20853;-71
2021/04/22 07:34:06;;;;;;;18.73;5.33;;;8.90;75.80;;;;;;5060775;28;20462;-71
2021/04/22 07:36:51;;;;;;;22.70;3.53;;;9.00;75.00;;;;;;5067449;28;20473;-71
2021/04/22 07:39:36;;;;;;;11.47;3.23;;;9.00;71.30;;;;;;5066141;28;20477;-70
2021/04/22 07:42:22;;;;;;;23.43;4.80;;;9.00;72.80;;;;;;5063170;28;20964;-71
2021/04/22 07:45:08;;;;;;;15.10;3.83;;;9.10;72.20;;;;;;5058616;28;20466;-71
2021/04/22 07:47:53;;;;;;;15.63;3.80;;;9.20;71.70;;;;;;5055038;28;20506;-71
2021/04/22 07:50:40;;;;;;;7.50;3.60;;;9.20;70.20;;;;;;5057342;28;20494;-71
2021/04/22 07:53:25;;;;;;;13.50;4.13;;;9.10;70.00;;;;;;5059512;28;20438;-73
2021/04/22 07:56:10;;;;;;;20.03;5.10;;;9.20;71.70;;;;;;5062731;28;20474;-71
2021/04/22 07:58:56;;;;;;;20.43;4.30;;;9.30;70.40;;;;;;5065978;28;20489;-71
2021/04/22 08:01:41;;;;;;;21.03;4.80;;;9.30;69.90;;;;;;5055782;28;20979;-71
2021/04/22 08:04:26;;;;;;;15.20;3.67;;;9.30;67.40;;;;;;5060082;28;20524;-71
2021/04/22 08:07:11;;;;;;;19.00;3.90;;;9.30;68.80;;;;;;5063404;28;21011;-70
2021/04/22 08:09:57;;;;;;;18.17;4.97;;;9.40;67.30;;;;;;5059887;28;20427;-71
2021/04/22 08:12:42;;;;;;;21.13;4.57;;;9.30;65.80;;;;;;5068549;28;20803;-70
2021/04/22 08:15:28;;;;;;;17.00;3.97;;;9.30;65.20;;;;;;5062896;28;20462;-71
2021/04/22 08:18:13;;;;;;;19.43;5.20;;;9.30;66.80;;;;;;5060197;28;20470;-71
2021/04/22 08:20:59;;;;;;;12.90;4.47;;;9.40;63.20;;;;;;5059504;28;20478;-69
2021/04/22 08:23:44;;;;;;;11.50;5.10;;;9.30;64.90;;;;;;5061654;28;20455;-70
2021/04/22 08:26:30;;;;;;;12.07;4.10;;;9.40;65.00;;;;;;5063964;28;20436;-71
2021/04/22 08:29:15;;;;;;;16.30;4.07;;;9.50;65.30;;;;;;5059693;28;20802;-71
2021/04/22 08:32:01;;;;;;;28.57;4.80;;;9.60;63.30;;;;;;5059531;28;20485;-70
2021/04/22 08:34:46;;;;;;;20.63;5.33;;;9.70;65.10;;;;;;5064741;28;20466;-70
2021/04/22 08:37:31;;;;;;;14.20;4.73;;;9.90;65.70;;;;;;5064116;28;20613;-71
2021/04/22 08:40:17;;;;;;;13.93;4.10;;;10.00;62.90;;;;;;5062342;28;20535;-71
2021/04/22 08:43:05;;;;;;;17.73;4.63;;;10.10;63.10;;;;;;5068926;28;20883;-70
2021/04/22 08:45:51;;;;;;;12.60;5.40;;;10.20;61.00;;;;;;5058735;28;20445;-70
2021/04/22 08:48:41;;;;;;;26.23;5.57;;;10.20;59.20;;;;;;5064217;28;20413;-69
2021/04/22 08:51:27;;;;;;;17.40;4.37;;;10.30;62.20;;;;;;5059978;28;20610;-71
2021/04/22 08:54:13;;;;;;;17.10;5.00;;;10.40;58.60;;;;;;5061989;28;20445;-69
2021/04/22 08:56:58;;;;;;;15.13;4.60;;;10.50;59.80;;;;;;5057650;28;20450;-71
2021/04/22 08:59:43;;;;;;;14.23;4.50;;;10.60;58.30;;;;;;5060568;28;20504;-71
2021/04/22 09:02:29;;;;;;;17.40;3.97;;;10.60;53.30;;;;;;5060949;28;20438;-72
2021/04/22 09:05:16;;;;;;;15.97;5.37;;;10.60;54.70;;;;;;5060203;28;20470;-71
2021/04/22 09:08:01;;;;;;;22.73;4.20;;;10.70;54.00;;;;;;5065167;28;20446;-71
2021/04/22 09:10:47;;;;;;;11.93;4.30;;;10.70;55.50;;;;;;5063391;28;20456;-71
2021/04/22 09:13:34;;;;;;;18.30;4.77;;;10.70;52.60;;;;;;5058382;28;20990;-71
2021/04/22 09:16:22;;;;;;;19.13;5.10;;;10.60;54.30;;;;;;5060180;28;20824;-71
2021/04/22 09:19:09;;;;;;;13.07;4.37;;;10.70;52.10;;;;;;5059015;28;20511;-71
2021/04/22 09:21:57;;;;;;;17.73;5.33;;;10.60;52.20;;;;;;5059899;28;20948;-71
2021/04/22 09:24:42;;;;;;;13.70;4.13;;;10.70;50.80;;;;;;5063244;28;20442;-71
2021/04/22 09:27:32;;;;;;;13.47;4.50;;;10.80;53.20;;;;;;5064181;28;20443;-72
2021/04/22 09:30:30;;;;;;;15.33;4.90;;;10.90;49.20;;;;;;5060873;28;20457;-71
2021/04/22 09:33:23;;;;;;;13.33;4.30;;;11.10;51.40;;;;;;5058239;28;20434;-72
2021/04/22 09:36:11;;;;;;;20.00;4.53;;;11.30;50.70;;;;;;5062382;28;20823;-68
2021/04/22 09:38:57;;;;;;;15.80;4.90;;;11.50;48.10;;;;;;5060764;28;20442;-69
2021/04/22 09:41:42;;;;;;;13.83;4.07;;;11.50;44.20;;;;;;5059212;28;20413;-70
2021/04/22 09:44:29;;;;;;;12.40;3.93;;;11.60;45.80;;;;;;5065687;28;20470;-72
2021/04/22 09:47:18;;;;;;;14.33;5.53;;;11.60;44.30;;;;;;5060478;28;20421;-69
2021/04/22 09:50:08;;;;;;;20.73;4.80;;;11.80;45.80;;;;;;5056130;28;20485;-68
2021/04/22 09:52:56;;;;;;;15.10;4.07;;;11.90;44.70;;;;;;5062045;28;21010;-70
2021/04/22 09:55:43;;;;;;;12.57;4.30;;;12.00;44.40;;;;;;5055354;28;20551;-69
2021/04/22 09:58:30;;;;;;;12.00;4.50;;;12.00;44.80;;;;;;5065220;28;20477;-69
2021/04/22 10:01:21;;;;;;;9.70;4.00;;;12.00;44.80;;;;;;5065249;28;20484;-69
2021/04/22 10:04:06;;;;;;;15.37;5.17;;;12.10;44.90;;;;;;5059412;28;20447;-70
2021/04/22 10:06:51;;;;;;;17.87;5.60;;;12.20;45.10;;;;;;5063072;28;20508;-70
2021/04/22 10:09:37;;;;;;;13.73;3.90;;;12.20;44.30;;;;;;5059555;28;20426;-68
2021/04/22 10:12:28;;;;;;;18.50;5.20;;;12.30;42.40;;;;;;5060108;28;20454;-69
2021/04/22 10:15:17;;;;;;;16.43;4.63;;;12.40;42.50;;;;;;5067292;28;20824;-69
2021/04/22 10:18:04;;;;;;;9.10;3.80;;;12.50;42.00;;;;;;5062541;28;20517;-70
2021/04/22 10:20:56;;;;;;;15.20;3.90;;;12.60;40.80;;;;;;5060281;28;20420;-71
2021/04/22 10:23:41;;;;;;;10.70;4.30;;;12.60;39.50;;;;;;5063153;28;20447;-71
2021/04/22 10:26:26;;;;;;;15.83;3.97;;;12.60;39.50;;;;;;5059665;28;20440;-70
2021/04/22 10:29:12;;;;;;;12.67;3.70;;;12.60;39.40;;;;;;5056272;28;20414;-71
2021/04/22 10:31:59;;;;;;;9.27;3.93;;;12.70;38.70;;;;;;5060017;28;20441;-71
2021/04/22 10:34:45;;;;;;;10.13;3.57;;;12.80;38.90;;;;;;5057124;28;20529;-71
2021/04/22 10:37:33;;;;;;;9.50;3.27;;;12.90;38.60;;;;;;5053803;28;20447;-69
2021/04/22 10:40:21;;;;;;;9.60;2.70;;;13.10;37.40;;;;;;5056672;28;21056;-71
2021/04/22 10:43:08;;;;;;;11.73;4.43;;;13.20;34.00;;;;;;5070728;28;20420;-71
2021/04/22 10:45:56;;;;;;;11.10;3.50;;;13.40;34.60;;;;;;5065672;28;20444;-71
2021/04/22 10:48:41;;;;;;;8.07;3.23;;;13.40;35.40;;;;;;5062826;28;20417;-71
2021/04/22 10:51:27;;;;;;;18.30;4.93;;;13.50;34.90;;;;;;5057217;28;20442;-71
2021/04/22 10:54:11;;;;;;;14.90;2.70;;;13.70;33.90;;;;;;5068260;28;20887;-70
2021/04/22 10:57:05;;;;;;;9.50;3.43;;;13.70;35.50;;;;;;5054377;28;20471;-71
2021/04/22 11:00:07;;;;;;;8.10;3.23;;;13.90;33.30;;;;;;5061293;28;20502;-69
2021/04/22 11:02:56;;;;;;;8.63;3.43;;;14.10;33.30;;;;;;5061766;28;20453;-71
2021/04/22 11:05:41;;;;;;;12.27;3.47;;;14.20;37.10;;;;;;5056646;28;20489;-70
2021/04/22 11:08:35;;;;;;;8.00;3.30;;;14.30;32.90;;;;;;5063865;28;20417;-71
2021/04/22 11:11:22;;;;;;;5.67;2.73;;;14.30;31.10;;;;;;5065560;28;20447;-71
2021/04/22 11:14:10;;;;;;;12.47;3.33;;;14.30;33.70;;;;;;5062319;28;20474;-71
2021/04/22 11:16:55;;;;;;;9.73;3.00;;;14.10;30.40;;;;;;5060131;28;20475;-72
2021/04/22 11:19:43;;;;;;;11.60;3.20;;;14.20;32.10;;;;;;5063613;28;20481;-71
2021/04/22 11:22:29;;;;;;;12.57;3.77;;;14.20;30.80;;;;;;5061928;28;20555;-71
2021/04/22 11:25:19;;;;;;;12.13;3.53;;;14.40;33.60;;;;;;5059056;28;22242;-71
2021/04/22 11:28:06;;;;;;;8.37;3.23;;;14.60;32.00;;;;;;5064012;28;20506;-71
2021/04/22 11:30:50;;;;;;;9.43;3.43;;;14.70;33.40;;;;;;5059163;28;20522;-70
2021/04/22 11:33:36;;;;;;;16.40;3.47;;;14.60;32.40;;;;;;5058252;28;20438;-71
2021/04/22 11:36:24;;;;;;;9.97;3.80;;;14.70;33.20;;;;;;5062387;28;20513;-71
2021/04/22 11:39:09;;;;;;;8.63;3.87;;;14.60;33.30;;;;;;5062994;28;20477;-71
2021/04/22 11:41:56;;;;;;;12.53;3.87;;;14.60;33.10;;;;;;5062296;28;20426;-73
2021/04/22 11:44:43;;;;;;;8.20;2.80;;;14.70;36.00;;;;;;5062440;28;20489;-71
2021/04/22 11:47:32;;;;;;;7.90;3.30;;;14.90;35.20;;;;;;5064023;28;20405;-71
2021/04/22 11:50:20;;;;;;;10.43;3.07;;;15.10;32.10;;;;;;5058999;28;20413;-71
2021/04/22 11:53:06;;;;;;;14.63;3.70;;;15.10;30.10;;;;;;5067284;28;20500;-71
2021/04/22 11:55:56;;;;;;;11.63;3.33;;;15.30;32.20;;;;;;5068014;28;20567;-71
2021/04/22 11:58:42;;;;;;;12.30;3.30;;;15.40;31.70;;;;;;5062823;28;20557;-70
2021/04/22 12:01:27;;;;;;;7.40;3.10;;;15.50;30.40;;;;;;5060165;28;20588;-71
2021/04/22 12:04:12;;;;;;;8.37;4.03;;;15.50;32.50;;;;;;5056460;28;20421;-71
2021/04/22 12:06:58;;;;;;;10.03;3.30;;;15.50;30.50;;;;;;5066134;28;20421;-71
2021/04/22 12:09:47;;;;;;;7.70;3.40;;;15.50;30.50;;;;;;5062616;28;20909;-71
2021/04/22 12:12:32;;;;;;;12.27;3.50;;;15.50;32.40;;;;;;5062828;28;20524;-70
2021/04/22 12:15:20;;;;;;;7.93;3.70;;;15.60;30.30;;;;;;5060347;28;20489;-72
2021/04/22 12:18:07;;;;;;;9.87;4.00;;;15.70;31.30;;;;;;5059203;28;20493;-71
2021/04/22 12:20:55;;;;;;;8.57;3.67;;;15.70;30.90;;;;;;5064718;28;20409;-71
2021/04/22 12:23:42;;;;;;;12.03;3.80;;;15.90;31.80;;;;;;5061933;28;20582;-72
2021/04/22 12:26:32;;;;;;;13.93;3.13;;;16.10;30.50;;;;;;5061004;28;20896;-69
2021/04/22 12:29:18;;;;;;;17.10;3.77;;;16.20;29.40;;;;;;5059266;28;20437;-69
2021/04/22 12:32:04;;;;;;;7.23;2.90;;;16.20;29.80;;;;;;5061581;28;20488;-70
2021/04/22 12:34:49;;;;;;;11.33;3.27;;;16.30;29.40;;;;;;5065577;28;20444;-71
2021/04/22 12:37:34;;;;;;;7.73;3.00;;;16.40;30.00;;;;;;5062040;28;20436;-71
2021/04/22 12:40:21;;;;;;;11.93;3.63;;;16.50;28.50;;;;;;5066387;28;20448;-71
2021/04/22 12:43:07;;;;;;;12.90;4.07;;;16.50;28.80;;;;;;5070516;28;20797;-71
2021/04/22 12:45:53;;;;;;;15.73;3.77;;;16.50;29.80;;;;;;5062116;28;20491;-70
2021/04/22 12:48:39;;;;;;;14.77;4.33;;;16.30;34.20;;;;;;5062152;28;20968;-71
2021/04/22 12:51:31;;;;;;;12.03;4.90;;;16.60;32.60;;;;;;5062473;28;20475;-70
2021/04/22 12:54:18;;;;;;;40.87;7.23;;;17.00;30.90;;;;;;5054541;28;20451;-70
2021/04/22 12:57:11;;;;;;;12.53;3.80;;;17.30;32.60;;;;;;5061350;28;20470;-70
2021/04/22 12:59:57;;;;;;;17.77;5.13;;;17.50;30.10;;;;;;5062127;28;20470;-72
2021/04/22 13:02:42;;;;;;;18.83;4.57;;;17.70;29.70;;;;;;5057428;28;20421;-71
2021/04/22 13:05:27;;;;;;;13.30;4.27;;;17.90;29.70;;;;;;5052591;28;21109;-71
2021/04/22 13:08:13;;;;;;;11.67;3.60;;;18.20;29.80;;;;;;5062996;28;20872;-71
2021/04/22 13:11:00;;;;;;;12.30;3.80;;;18.40;29.00;;;;;;5064657;28;20856;-71
2021/04/22 13:13:50;;;;;;;14.80;4.97;;;18.30;28.00;;;;;;5059641;28;20506;-70
2021/04/22 13:16:47;;;;;;;10.00;2.90;;;18.30;27.90;;;;;;5057563;28;20902;-73
2021/04/22 13:19:36;;;;;;;11.70;3.73;;;18.40;28.60;;;;;;5054579;28;20548;-71
2021/04/22 13:22:21;;;;;;;10.97;4.20;;;18.60;28.90;;;;;;5056135;28;20451;-70
2021/04/22 13:25:10;;;;;;;13.30;3.73;;;18.60;26.60;;;;;;5057927;28;20466;-72
2021/04/22 13:28:05;;;;;;;11.23;3.70;;;18.70;28.50;;;;;;5059045;28;20494;-72
2021/04/22 13:30:51;;;;;;;9.77;3.60;;;18.70;26.50;;;;;;5054680;28;20436;-71
2021/04/22 13:33:37;;;;;;;9.83;3.93;;;18.60;25.60;;;;;;5060224;28;20442;-70
2021/04/22 13:36:22;;;;;;;11.70;3.93;;;18.40;26.60;;;;;;5059954;28;20470;-70
2021/04/22 13:39:09;;;;;;;9.87;3.30;;;18.40;27.60;;;;;;5058844;28;20453;-71
2021/04/22 13:41:55;;;;;;;9.10;3.90;;;18.20;26.50;;;;;;5059453;28;20458;-71
2021/04/22 13:44:41;;;;;;;7.70;2.73;;;18.20;26.80;;;;;;5059271;28;20477;-70
2021/04/22 13:47:27;;;;;;;8.97;3.60;;;18.30;27.50;;;;;;5059465;28;20487;-71
2021/04/22 13:50:14;;;;;;;9.07;3.43;;;18.60;29.10;;;;;;5064876;28;20450;-71
2021/04/22 13:53:02;;;;;;;7.13;2.90;;;18.70;27.40;;;;;;5060419;28;20543;-72
2021/04/22 13:55:50;;;;;;;10.00;4.07;;;18.70;26.70;;;;;;5056367;28;20959;-73
2021/04/22 13:58:37;;;;;;;14.03;3.77;;;18.60;27.30;;;;;;5051649;28;20545;-73
2021/04/22 14:01:25;;;;;;;8.30;3.17;;;18.60;27.10;;;;;;5063616;28;20447;-72
2021/04/22 14:04:12;;;;;;;17.90;4.07;;;18.60;28.20;;;;;;5061595;28;20454;-71
2021/04/22 14:06:58;;;;;;;11.30;3.73;;;18.70;27.20;;;;;;5064010;28;20804;-72
2021/04/22 14:09:43;;;;;;;8.63;3.53;;;18.70;27.50;;;;;;5060797;28;20955;-72
2021/04/22 14:12:31;;;;;;;8.93;3.20;;;18.50;25.20;;;;;;5064657;28;20584;-72
2021/04/22 14:15:17;;;;;;;12.00;4.23;;;18.50;25.80;;;;;;5065409;28;21229;-72
2021/04/22 14:18:02;;;;;;;8.53;3.63;;;18.60;25.30;;;;;;5065044;28;20898;-72